sensor_id;sensor_type;location;lat;lon;timestamp;temperature;humidity
44863;DHT22;30597;49.628;10.850;2023-01-13T00:01:11;17.80;49.70
44863;DHT22;30597;49.628;10.850;2023-01-13T00:03:37;17.80;49.70
44863;DHT22;30597;49.628;10.850;2023-01-13T00:06:04;17.80;49.70
44863;DHT22;30597;49.628;10.850;2023-01-13T00:08:30;17.70;49.60
44863;DHT22;30597;49.628;10.850;2023-01-13T00:10:56;17.70;49.60
44863;DHT22;30597;49.628;10.850;2023-01-13T00:13:21;17.70;49.60
44863;DHT22;30597;49.628;10.850;2023-01-13T00:16:05;17.70;49.70
44863;DHT22;30597;49.628;10.850;2023-01-13T00:18:31;17.70;49.80
44863;DHT22;30597;49.628;10.850;2023-01-13T00:21:03;17.70;49.80
44863;DHT22;30597;49.628;10.850;2023-01-13T00:23:30;17.60;49.80
44863;DHT22;30597;49.628;10.850;2023-01-13T00:25:57;17.70;49.90
44863;DHT22;30597;49.628;10.850;2023-01-13T00:28:23;17.60;49.90
44863;DHT22;30597;49.628;10.850;2023-01-13T00:30:49;17.60;49.80
44863;DHT22;30597;49.628;10.850;2023-01-13T00:33:14;17.60;49.90
44863;DHT22;30597;49.628;10.850;2023-01-13T00:35:40;17.50;49.90
44863;DHT22;30597;49.628;10.850;2023-01-13T00:38:05;17.40;49.90
44863;DHT22;30597;49.628;10.850;2023-01-13T00:40:31;17.50;50.00
44863;DHT22;30597;49.628;10.850;2023-01-13T00:42:57;17.30;50.00
44863;DHT22;30597;49.628;10.850;2023-01-13T00:45:41;17.30;50.30
44863;DHT22;30597;49.628;10.850;2023-01-13T00:48:07;17.20;50.50
44863;DHT22;30597;49.628;10.850;2023-01-13T00:50:33;17.20;50.40
44863;DHT22;30597;49.628;10.850;2023-01-13T00:52:59;17.20;50.50
44863;DHT22;30597;49.628;10.850;2023-01-13T00:55:25;17.10;50.50
44863;DHT22;30597;49.628;10.850;2023-01-13T00:57:51;17.20;50.60
44863;DHT22;30597;49.628;10.850;2023-01-13T01:00:16;17.10;50.50
44863;DHT22;30597;49.628;10.850;2023-01-13T01:02:42;17.20;50.60
44863;DHT22;30597;49.628;10.850;2023-01-13T01:05:08;17.10;50.50
44863;DHT22;30597;49.628;10.850;2023-01-13T01:07:34;17.10;50.50
44863;DHT22;30597;49.628;10.850;2023-01-13T01:10:00;17.10;50.70
44863;DHT22;30597;49.628;10.850;2023-01-13T01:12:25;17.10;50.60
44863;DHT22;30597;49.628;10.850;2023-01-13T01:14:51;17.20;50.50
44863;DHT22;30597;49.628;10.850;2023-01-13T01:17:16;17.20;50.40
44863;DHT22;30597;49.628;10.850;2023-01-13T01:19:42;17.10;50.40
44863;DHT22;30597;49.628;10.850;2023-01-13T01:22:08;17.20;50.50
44863;DHT22;30597;49.628;10.850;2023-01-13T01:24:33;17.10;50.40
44863;DHT22;30597;49.628;10.850;2023-01-13T01:26:59;17.10;50.40
44863;DHT22;30597;49.628;10.850;2023-01-13T01:29:25;17.10;50.60
44863;DHT22;30597;49.628;10.850;2023-01-13T01:31:50;17.10;50.60
44863;DHT22;30597;49.628;10.850;2023-01-13T01:34:16;17.10;50.50
44863;DHT22;30597;49.628;10.850;2023-01-13T01:36:41;17.10;50.60
44863;DHT22;30597;49.628;10.850;2023-01-13T01:39:08;17.00;50.50
44863;DHT22;30597;49.628;10.850;2023-01-13T01:41:35;17.10;50.70
44863;DHT22;30597;49.628;10.850;2023-01-13T01:44:47;17.00;50.70
44863;DHT22;30597;49.628;10.850;2023-01-13T01:46:53;17.00;50.70
44863;DHT22;30597;49.628;10.850;2023-01-13T01:49:22;17.10;50.80
44863;DHT22;30597;49.628;10.850;2023-01-13T01:54:41;17.00;50.70
44863;DHT22;30597;49.628;10.850;2023-01-13T01:57:09;17.00;50.70
44863;DHT22;30597;49.628;10.850;2023-01-13T01:59:37;17.00;50.80
44863;DHT22;30597;49.628;10.850;2023-01-13T02:02:03;16.90;50.60
44863;DHT22;30597;49.628;10.850;2023-01-13T02:04:33;17.00;50.70
44863;DHT22;30597;49.628;10.850;2023-01-13T02:07:00;17.00;50.70
44863;DHT22;30597;49.628;10.850;2023-01-13T02:09:26;17.00;50.80
44863;DHT22;30597;49.628;10.850;2023-01-13T02:11:52;17.00;50.70
44863;DHT22;30597;49.628;10.850;2023-01-13T02:14:37;17.10;50.80
44863;DHT22;30597;49.628;10.850;2023-01-13T02:17:47;17.10;50.80
44863;DHT22;30597;49.628;10.850;2023-01-13T02:20:45;17.00;50.60
44863;DHT22;30597;49.628;10.850;2023-01-13T02:29:38;17.00;50.60
44863;DHT22;30597;49.628;10.850;2023-01-13T02:32:33;17.00;50.70
44863;DHT22;30597;49.628;10.850;2023-01-13T02:35:10;17.00;50.70
44863;DHT22;30597;49.628;10.850;2023-01-13T02:37:41;17.00;50.60
44863;DHT22;30597;49.628;10.850;2023-01-13T02:40:13;17.00;50.50
44863;DHT22;30597;49.628;10.850;2023-01-13T02:42:47;17.00;50.40
44863;DHT22;30597;49.628;10.850;2023-01-13T02:46:11;17.10;50.40
44863;DHT22;30597;49.628;10.850;2023-01-13T02:48:30;17.10;50.40
44863;DHT22;30597;49.628;10.850;2023-01-13T02:51:00;17.00;50.20
44863;DHT22;30597;49.628;10.850;2023-01-13T02:53:32;17.00;50.30
44863;DHT22;30597;49.628;10.850;2023-01-13T02:56:01;17.10;50.40
44863;DHT22;30597;49.628;10.850;2023-01-13T02:58:29;17.00;50.30
44863;DHT22;30597;49.628;10.850;2023-01-13T03:00:57;17.00;50.30
44863;DHT22;30597;49.628;10.850;2023-01-13T03:03:23;17.00;50.20
44863;DHT22;30597;49.628;10.850;2023-01-13T03:05:52;17.00;50.40
44863;DHT22;30597;49.628;10.850;2023-01-13T03:08:34;17.00;50.30
44863;DHT22;30597;49.628;10.850;2023-01-13T03:11:22;17.10;50.40
44863;DHT22;30597;49.628;10.850;2023-01-13T03:22:13;17.00;50.40
44863;DHT22;30597;49.628;10.850;2023-01-13T03:25:08;17.00;50.50
44863;DHT22;30597;49.628;10.850;2023-01-13T03:28:05;17.00;50.40
44863;DHT22;30597;49.628;10.850;2023-01-13T03:30:36;16.90;50.40
44863;DHT22;30597;49.628;10.850;2023-01-13T03:33:26;16.90;50.40
44863;DHT22;30597;49.628;10.850;2023-01-13T03:35:58;17.00;50.40
44863;DHT22;30597;49.628;10.850;2023-01-13T03:38:36;17.00;50.40
44863;DHT22;30597;49.628;10.850;2023-01-13T03:41:14;17.00;50.30
44863;DHT22;30597;49.628;10.850;2023-01-13T03:43:48;16.90;50.30
44863;DHT22;30597;49.628;10.850;2023-01-13T03:49:42;16.90;50.30
44863;DHT22;30597;49.628;10.850;2023-01-13T03:52:16;16.90;50.40
44863;DHT22;30597;49.628;10.850;2023-01-13T03:54:57;16.90;50.40
44863;DHT22;30597;49.628;10.850;2023-01-13T03:57:28;16.90;50.30
44863;DHT22;30597;49.628;10.850;2023-01-13T03:59:57;16.90;50.30
44863;DHT22;30597;49.628;10.850;2023-01-13T04:02:51;16.90;50.30
44863;DHT22;30597;49.628;10.850;2023-01-13T04:05:19;16.90;50.30
44863;DHT22;30597;49.628;10.850;2023-01-13T04:08:01;16.90;50.20
44863;DHT22;30597;49.628;10.850;2023-01-13T04:10:43;16.90;50.30
44863;DHT22;30597;49.628;10.850;2023-01-13T04:13:14;16.90;50.30
44863;DHT22;30597;49.628;10.850;2023-01-13T04:15:45;16.90;50.30
44863;DHT22;30597;49.628;10.850;2023-01-13T04:18:29;17.00;50.40
44863;DHT22;30597;49.628;10.850;2023-01-13T04:21:00;16.90;50.10
44863;DHT22;30597;49.628;10.850;2023-01-13T04:23:26;16.90;50.20
44863;DHT22;30597;49.628;10.850;2023-01-13T04:25:52;16.90;50.10
44863;DHT22;30597;49.628;10.850;2023-01-13T04:28:19;16.80;50.30
44863;DHT22;30597;49.628;10.850;2023-01-13T04:30:45;16.80;50.40
44863;DHT22;30597;49.628;10.850;2023-01-13T04:33:11;17.00;50.30
44863;DHT22;30597;49.628;10.850;2023-01-13T04:35:37;17.00;50.30
44863;DHT22;30597;49.628;10.850;2023-01-13T04:38:07;17.00;50.10
44863;DHT22;30597;49.628;10.850;2023-01-13T04:40:33;17.10;50.20
44863;DHT22;30597;49.628;10.850;2023-01-13T04:42:58;17.10;49.90
44863;DHT22;30597;49.628;10.850;2023-01-13T04:45:24;17.20;49.90
44863;DHT22;30597;49.628;10.850;2023-01-13T04:47:50;17.20;49.80
44863;DHT22;30597;49.628;10.850;2023-01-13T04:50:16;17.20;49.80
44863;DHT22;30597;49.628;10.850;2023-01-13T04:52:45;17.30;49.80
44863;DHT22;30597;49.628;10.850;2023-01-13T04:55:11;17.30;49.80
44863;DHT22;30597;49.628;10.850;2023-01-13T04:57:37;17.40;49.80
44863;DHT22;30597;49.628;10.850;2023-01-13T05:00:07;17.40;49.70
44863;DHT22;30597;49.628;10.850;2023-01-13T05:02:32;17.40;49.70
44863;DHT22;30597;49.628;10.850;2023-01-13T05:04:58;17.40;49.60
44863;DHT22;30597;49.628;10.850;2023-01-13T05:07:24;17.40;49.60
44863;DHT22;30597;49.628;10.850;2023-01-13T05:09:50;17.40;49.60
44863;DHT22;30597;49.628;10.850;2023-01-13T05:12:15;17.50;49.60
44863;DHT22;30597;49.628;10.850;2023-01-13T05:14:59;17.40;49.60
44863;DHT22;30597;49.628;10.850;2023-01-13T05:17:44;17.40;49.60
44863;DHT22;30597;49.628;10.850;2023-01-13T05:20:11;17.50;49.60
44863;DHT22;30597;49.628;10.850;2023-01-13T05:22:36;17.50;49.60
44863;DHT22;30597;49.628;10.850;2023-01-13T05:25:21;17.50;49.60
44863;DHT22;30597;49.628;10.850;2023-01-13T05:27:48;17.50;49.60
44863;DHT22;30597;49.628;10.850;2023-01-13T05:30:15;17.50;49.60
44863;DHT22;30597;49.628;10.850;2023-01-13T05:32:40;17.50;49.60
44863;DHT22;30597;49.628;10.850;2023-01-13T05:35:06;17.50;49.40
44863;DHT22;30597;49.628;10.850;2023-01-13T05:37:32;17.60;49.50
44863;DHT22;30597;49.628;10.850;2023-01-13T05:39:57;17.60;49.50
44863;DHT22;30597;49.628;10.850;2023-01-13T05:42:42;17.60;49.50
44863;DHT22;30597;49.628;10.850;2023-01-13T05:45:26;17.60;49.50
44863;DHT22;30597;49.628;10.850;2023-01-13T05:47:52;17.60;49.50
44863;DHT22;30597;49.628;10.850;2023-01-13T05:50:17;17.60;49.50
44863;DHT22;30597;49.628;10.850;2023-01-13T05:52:43;17.60;50.00
44863;DHT22;30597;49.628;10.850;2023-01-13T05:55:10;17.60;49.40
44863;DHT22;30597;49.628;10.850;2023-01-13T05:57:36;17.70;49.70
44863;DHT22;30597;49.628;10.850;2023-01-13T06:00:02;17.60;49.40
44863;DHT22;30597;49.628;10.850;2023-01-13T06:02:28;17.60;49.50
44863;DHT22;30597;49.628;10.850;2023-01-13T06:04:54;17.60;49.40
44863;DHT22;30597;49.628;10.850;2023-01-13T06:07:19;17.60;49.40
44863;DHT22;30597;49.628;10.850;2023-01-13T06:09:45;17.60;49.30
44863;DHT22;30597;49.628;10.850;2023-01-13T06:12:12;17.70;49.40
44863;DHT22;30597;49.628;10.850;2023-01-13T06:14:37;17.60;49.50
44863;DHT22;30597;49.628;10.850;2023-01-13T06:17:08;17.70;49.50
44863;DHT22;30597;49.628;10.850;2023-01-13T06:19:33;17.70;49.60
44863;DHT22;30597;49.628;10.850;2023-01-13T06:22:06;17.70;49.40
44863;DHT22;30597;49.628;10.850;2023-01-13T06:24:32;17.70;49.60
44863;DHT22;30597;49.628;10.850;2023-01-13T06:26:58;17.70;49.40
44863;DHT22;30597;49.628;10.850;2023-01-13T06:29:24;17.70;49.40
44863;DHT22;30597;49.628;10.850;2023-01-13T06:31:49;17.70;49.40
44863;DHT22;30597;49.628;10.850;2023-01-13T06:34:15;17.70;49.30
44863;DHT22;30597;49.628;10.850;2023-01-13T06:36:44;17.80;49.40
44863;DHT22;30597;49.628;10.850;2023-01-13T06:39:16;17.70;49.40
44863;DHT22;30597;49.628;10.850;2023-01-13T06:41:44;17.70;49.40
44863;DHT22;30597;49.628;10.850;2023-01-13T06:44:31;17.80;49.40
44863;DHT22;30597;49.628;10.850;2023-01-13T06:46:57;17.80;49.30
44863;DHT22;30597;49.628;10.850;2023-01-13T06:49:22;17.80;49.30
44863;DHT22;30597;49.628;10.850;2023-01-13T06:51:48;17.80;49.30
44863;DHT22;30597;49.628;10.850;2023-01-13T06:54:13;17.90;49.30
44863;DHT22;30597;49.628;10.850;2023-01-13T06:56:39;17.80;49.20
44863;DHT22;30597;49.628;10.850;2023-01-13T06:59:05;17.80;49.20
44863;DHT22;30597;49.628;10.850;2023-01-13T07:01:30;17.80;49.10
44863;DHT22;30597;49.628;10.850;2023-01-13T07:03:56;17.90;49.20
44863;DHT22;30597;49.628;10.850;2023-01-13T07:06:23;17.80;49.20
44863;DHT22;30597;49.628;10.850;2023-01-13T07:08:48;17.80;49.10
44863;DHT22;30597;49.628;10.850;2023-01-13T07:11:14;17.80;49.20
44863;DHT22;30597;49.628;10.850;2023-01-13T07:13:40;17.90;49.30
44863;DHT22;30597;49.628;10.850;2023-01-13T07:16:24;17.90;49.30
44863;DHT22;30597;49.628;10.850;2023-01-13T07:18:52;17.90;49.20
44863;DHT22;30597;49.628;10.850;2023-01-13T07:21:18;17.90;49.10
44863;DHT22;30597;49.628;10.850;2023-01-13T07:23:45;17.90;49.20
44863;DHT22;30597;49.628;10.850;2023-01-13T07:26:11;17.90;49.30
44863;DHT22;30597;49.628;10.850;2023-01-13T07:28:38;17.90;49.10
44863;DHT22;30597;49.628;10.850;2023-01-13T07:31:04;17.90;49.80
44863;DHT22;30597;49.628;10.850;2023-01-13T07:33:30;17.90;49.20
44863;DHT22;30597;49.628;10.850;2023-01-13T07:36:01;18.00;49.30
44863;DHT22;30597;49.628;10.850;2023-01-13T07:38:28;17.90;49.20
44863;DHT22;30597;49.628;10.850;2023-01-13T07:40:54;17.90;49.20
44863;DHT22;30597;49.628;10.850;2023-01-13T07:43:20;17.90;49.10
44863;DHT22;30597;49.628;10.850;2023-01-13T07:46:00;18.00;49.20
44863;DHT22;30597;49.628;10.850;2023-01-13T07:48:26;18.00;49.20
44863;DHT22;30597;49.628;10.850;2023-01-13T07:50:52;17.90;49.00
44863;DHT22;30597;49.628;10.850;2023-01-13T07:53:18;18.00;49.20
44863;DHT22;30597;49.628;10.850;2023-01-13T07:55:44;18.00;49.00
44863;DHT22;30597;49.628;10.850;2023-01-13T07:58:10;18.00;49.10
44863;DHT22;30597;49.628;10.850;2023-01-13T08:00:37;18.00;49.00
44863;DHT22;30597;49.628;10.850;2023-01-13T08:03:02;18.10;49.20
44863;DHT22;30597;49.628;10.850;2023-01-13T08:05:28;18.00;48.90
44863;DHT22;30597;49.628;10.850;2023-01-13T08:07:53;18.10;49.10
44863;DHT22;30597;49.628;10.850;2023-01-13T08:10:19;18.00;48.90
44863;DHT22;30597;49.628;10.850;2023-01-13T08:12:45;18.00;48.90
44863;DHT22;30597;49.628;10.850;2023-01-13T08:15:51;18.10;49.00
44863;DHT22;30597;49.628;10.850;2023-01-13T08:18:20;18.00;49.00
44863;DHT22;30597;49.628;10.850;2023-01-13T08:20:51;18.00;49.00
44863;DHT22;30597;49.628;10.850;2023-01-13T08:23:17;18.00;49.00
44863;DHT22;30597;49.628;10.850;2023-01-13T08:25:43;18.00;49.00
44863;DHT22;30597;49.628;10.850;2023-01-13T08:28:09;18.00;48.90
44863;DHT22;30597;49.628;10.850;2023-01-13T08:30:35;18.10;49.00
44863;DHT22;30597;49.628;10.850;2023-01-13T08:33:00;18.10;48.80
44863;DHT22;30597;49.628;10.850;2023-01-13T08:35:26;18.10;48.80
44863;DHT22;30597;49.628;10.850;2023-01-13T08:37:52;18.10;48.90
44863;DHT22;30597;49.628;10.850;2023-01-13T08:40:18;18.10;48.90
44863;DHT22;30597;49.628;10.850;2023-01-13T08:42:45;18.10;48.80
44863;DHT22;30597;49.628;10.850;2023-01-13T08:45:12;18.10;48.90
44863;DHT22;30597;49.628;10.850;2023-01-13T08:47:38;18.20;48.80
44863;DHT22;30597;49.628;10.850;2023-01-13T08:50:04;18.10;48.80
44863;DHT22;30597;49.628;10.850;2023-01-13T08:52:30;18.10;49.00
44863;DHT22;30597;49.628;10.850;2023-01-13T08:54:56;18.10;48.90
44863;DHT22;30597;49.628;10.850;2023-01-13T08:57:21;18.10;48.80
44863;DHT22;30597;49.628;10.850;2023-01-13T08:59:47;18.10;48.80
44863;DHT22;30597;49.628;10.850;2023-01-13T09:02:14;18.10;48.80
44863;DHT22;30597;49.628;10.850;2023-01-13T09:04:41;18.10;49.00
44863;DHT22;30597;49.628;10.850;2023-01-13T09:07:07;18.10;48.80
44863;DHT22;30597;49.628;10.850;2023-01-13T09:09:33;18.10;48.80
44863;DHT22;30597;49.628;10.850;2023-01-13T09:11:58;18.10;48.80
44863;DHT22;30597;49.628;10.850;2023-01-13T09:14:42;18.20;49.00
44863;DHT22;30597;49.628;10.850;2023-01-13T09:17:08;18.10;48.80
44863;DHT22;30597;49.628;10.850;2023-01-13T09:19:34;18.10;48.80
44863;DHT22;30597;49.628;10.850;2023-01-13T09:22:01;18.10;49.00
44863;DHT22;30597;49.628;10.850;2023-01-13T09:24:26;18.10;49.00
44863;DHT22;30597;49.628;10.850;2023-01-13T09:26:52;18.10;48.90
44863;DHT22;30597;49.628;10.850;2023-01-13T09:29:18;18.10;49.00
44863;DHT22;30597;49.628;10.850;2023-01-13T09:31:43;18.10;49.00
44863;DHT22;30597;49.628;10.850;2023-01-13T09:34:13;18.20;49.20
44863;DHT22;30597;49.628;10.850;2023-01-13T09:36:58;18.10;49.20
44863;DHT22;30597;49.628;10.850;2023-01-13T09:39:23;18.10;49.00
44863;DHT22;30597;49.628;10.850;2023-01-13T09:41:52;18.10;48.90
44863;DHT22;30597;49.628;10.850;2023-01-13T09:44:43;18.10;49.20
44863;DHT22;30597;49.628;10.850;2023-01-13T09:47:42;18.10;49.20
44863;DHT22;30597;49.628;10.850;2023-01-13T09:52:39;18.10;49.10
44863;DHT22;30597;49.628;10.850;2023-01-13T09:55:13;18.10;49.20
44863;DHT22;30597;49.628;10.850;2023-01-13T09:57:39;18.20;49.20
44863;DHT22;30597;49.628;10.850;2023-01-13T10:00:20;18.20;49.10
44863;DHT22;30597;49.628;10.850;2023-01-13T10:08:02;18.20;49.20
44863;DHT22;30597;49.628;10.850;2023-01-13T10:10:46;18.20;49.10
44863;DHT22;30597;49.628;10.850;2023-01-13T10:13:13;18.20;49.20
44863;DHT22;30597;49.628;10.850;2023-01-13T10:15:44;18.20;49.20
44863;DHT22;30597;49.628;10.850;2023-01-13T10:18:20;18.20;49.20
44863;DHT22;30597;49.628;10.850;2023-01-13T10:24:04;18.20;49.20
44863;DHT22;30597;49.628;10.850;2023-01-13T10:26:44;18.20;49.20
44863;DHT22;30597;49.628;10.850;2023-01-13T10:29:23;18.30;49.20
44863;DHT22;30597;49.628;10.850;2023-01-13T10:31:54;18.30;49.20
44863;DHT22;30597;49.628;10.850;2023-01-13T10:34:20;18.30;49.20
44863;DHT22;30597;49.628;10.850;2023-01-13T10:37:09;18.30;49.10
44863;DHT22;30597;49.628;10.850;2023-01-13T10:39:46;18.30;49.10
44863;DHT22;30597;49.628;10.850;2023-01-13T10:42:16;18.30;49.80
44863;DHT22;30597;49.628;10.850;2023-01-13T10:44:57;18.30;49.20
44863;DHT22;30597;49.628;10.850;2023-01-13T10:47:33;18.30;49.10
44863;DHT22;30597;49.628;10.850;2023-01-13T10:52:29;18.30;49.00
44863;DHT22;30597;49.628;10.850;2023-01-13T10:54:56;18.30;49.00
44863;DHT22;30597;49.628;10.850;2023-01-13T10:57:24;18.40;49.10
44863;DHT22;30597;49.628;10.850;2023-01-13T10:59:50;18.40;49.00
44863;DHT22;30597;49.628;10.850;2023-01-13T11:02:28;18.40;48.90
44863;DHT22;30597;49.628;10.850;2023-01-13T11:07:34;18.40;48.90
44863;DHT22;30597;49.628;10.850;2023-01-13T11:10:21;18.40;49.00
44863;DHT22;30597;49.628;10.850;2023-01-13T11:15:22;18.50;49.00
44863;DHT22;30597;49.628;10.850;2023-01-13T11:17:52;18.40;49.00
44863;DHT22;30597;49.628;10.850;2023-01-13T11:20:38;18.40;48.90
44863;DHT22;30597;49.628;10.850;2023-01-13T11:25:41;18.50;48.90
44863;DHT22;30597;49.628;10.850;2023-01-13T11:28:25;18.50;49.00
44863;DHT22;30597;49.628;10.850;2023-01-13T11:31:10;18.50;49.00
44863;DHT22;30597;49.628;10.850;2023-01-13T11:33:49;18.50;49.00
44863;DHT22;30597;49.628;10.850;2023-01-13T11:36:22;18.50;49.00
44863;DHT22;30597;49.628;10.850;2023-01-13T11:38:57;18.40;48.90
44863;DHT22;30597;49.628;10.850;2023-01-13T11:41:44;18.50;49.00
44863;DHT22;30597;49.628;10.850;2023-01-13T11:45:13;18.50;49.00
44863;DHT22;30597;49.628;10.850;2023-01-13T11:47:28;18.50;49.70
44863;DHT22;30597;49.628;10.850;2023-01-13T11:49:55;18.40;49.10
44863;DHT22;30597;49.628;10.850;2023-01-13T11:52:29;18.50;49.00
44863;DHT22;30597;49.628;10.850;2023-01-13T11:55:07;18.50;49.20
44863;DHT22;30597;49.628;10.850;2023-01-13T12:00:25;18.50;49.10
44863;DHT22;30597;49.628;10.850;2023-01-13T12:05:40;18.50;49.10
44863;DHT22;30597;49.628;10.850;2023-01-13T12:10:58;18.40;49.10
44863;DHT22;30597;49.628;10.850;2023-01-13T12:16:52;18.40;49.10
44863;DHT22;30597;49.628;10.850;2023-01-13T12:19:26;18.40;49.10
44863;DHT22;30597;49.628;10.850;2023-01-13T12:22:02;18.40;49.20
44863;DHT22;30597;49.628;10.850;2023-01-13T12:30:00;18.40;49.20
44863;DHT22;30597;49.628;10.850;2023-01-13T12:32:37;18.40;49.30
44863;DHT22;30597;49.628;10.850;2023-01-13T12:35:35;18.30;49.10
44863;DHT22;30597;49.628;10.850;2023-01-13T12:38:34;18.30;49.20
44863;DHT22;30597;49.628;10.850;2023-01-13T12:43:58;18.40;49.40
44863;DHT22;30597;49.628;10.850;2023-01-13T12:49:21;18.40;49.10
44863;DHT22;30597;49.628;10.850;2023-01-13T12:59:41;18.40;49.20
44863;DHT22;30597;49.628;10.850;2023-01-13T13:04:44;18.40;49.30
44863;DHT22;30597;49.628;10.850;2023-01-13T13:07:18;18.40;49.30
44863;DHT22;30597;49.628;10.850;2023-01-13T13:09:49;18.40;49.20
44863;DHT22;30597;49.628;10.850;2023-01-13T13:15:28;18.40;49.20
44863;DHT22;30597;49.628;10.850;2023-01-13T13:21:07;18.40;49.30
44863;DHT22;30597;49.628;10.850;2023-01-13T13:28:55;18.50;49.30
44863;DHT22;30597;49.628;10.850;2023-01-13T13:31:56;18.50;49.30
44863;DHT22;30597;49.628;10.850;2023-01-13T13:35:00;18.50;49.20
44863;DHT22;30597;49.628;10.850;2023-01-13T13:40:02;18.50;49.20
44863;DHT22;30597;49.628;10.850;2023-01-13T13:42:55;18.40;49.20
44863;DHT22;30597;49.628;10.850;2023-01-13T13:45:49;18.40;49.10
44863;DHT22;30597;49.628;10.850;2023-01-13T13:48:34;18.40;49.00
44863;DHT22;30597;49.628;10.850;2023-01-13T13:51:01;18.40;49.20
44863;DHT22;30597;49.628;10.850;2023-01-13T13:53:31;18.40;48.80
44863;DHT22;30597;49.628;10.850;2023-01-13T13:55:59;18.40;49.20
44863;DHT22;30597;49.628;10.850;2023-01-13T13:58:27;18.40;49.20
44863;DHT22;30597;49.628;10.850;2023-01-13T14:00:55;18.50;49.00
44863;DHT22;30597;49.628;10.850;2023-01-13T14:03:23;18.40;48.90
44863;DHT22;30597;49.628;10.850;2023-01-13T14:05:59;18.40;49.00
44863;DHT22;30597;49.628;10.850;2023-01-13T14:08:32;18.40;49.00
44863;DHT22;30597;49.628;10.850;2023-01-13T14:10:58;18.40;49.00
44863;DHT22;30597;49.628;10.850;2023-01-13T14:13:28;18.30;48.60
44863;DHT22;30597;49.628;10.850;2023-01-13T14:16:02;18.30;49.00
44863;DHT22;30597;49.628;10.850;2023-01-13T14:18:31;18.30;49.00
44863;DHT22;30597;49.628;10.850;2023-01-13T14:23:30;18.30;49.00
44863;DHT22;30597;49.628;10.850;2023-01-13T14:26:16;18.40;49.20
44863;DHT22;30597;49.628;10.850;2023-01-13T14:28:43;18.40;49.10
44863;DHT22;30597;49.628;10.850;2023-01-13T14:31:09;18.40;49.20
44863;DHT22;30597;49.628;10.850;2023-01-13T14:33:41;18.40;49.00
44863;DHT22;30597;49.628;10.850;2023-01-13T14:38:40;18.40;49.00
44863;DHT22;30597;49.628;10.850;2023-01-13T14:41:18;18.40;49.30
44863;DHT22;30597;49.628;10.850;2023-01-13T14:43:45;18.40;49.10
44863;DHT22;30597;49.628;10.850;2023-01-13T14:46:12;18.40;49.30
44863;DHT22;30597;49.628;10.850;2023-01-13T14:48:39;18.40;49.30
44863;DHT22;30597;49.628;10.850;2023-01-13T14:51:09;18.40;49.30
44863;DHT22;30597;49.628;10.850;2023-01-13T14:53:42;18.40;49.30
44863;DHT22;30597;49.628;10.850;2023-01-13T14:56:40;18.50;49.30
44863;DHT22;30597;49.628;10.850;2023-01-13T15:08:02;18.40;49.30
44863;DHT22;30597;49.628;10.850;2023-01-13T15:12:59;18.40;49.00
44863;DHT22;30597;49.628;10.850;2023-01-13T15:15:34;18.40;49.30
44863;DHT22;30597;49.628;10.850;2023-01-13T15:18:11;18.40;49.30
44863;DHT22;30597;49.628;10.850;2023-01-13T15:20:38;18.40;49.30
44863;DHT22;30597;49.628;10.850;2023-01-13T15:23:04;18.40;49.40
44863;DHT22;30597;49.628;10.850;2023-01-13T15:25:35;18.30;48.90
44863;DHT22;30597;49.628;10.850;2023-01-13T15:28:02;18.30;49.40
44863;DHT22;30597;49.628;10.850;2023-01-13T15:30:27;18.30;49.10
44863;DHT22;30597;49.628;10.850;2023-01-13T15:32:55;18.40;49.20
44863;DHT22;30597;49.628;10.850;2023-01-13T15:35:23;18.40;49.40
44863;DHT22;30597;49.628;10.850;2023-01-13T15:37:49;18.40;49.40
44863;DHT22;30597;49.628;10.850;2023-01-13T15:40:23;18.40;49.30
44863;DHT22;30597;49.628;10.850;2023-01-13T15:42:49;18.30;49.10
44863;DHT22;30597;49.628;10.850;2023-01-13T15:45:35;18.30;49.20
44863;DHT22;30597;49.628;10.850;2023-01-13T15:48:21;18.40;49.40
44863;DHT22;30597;49.628;10.850;2023-01-13T15:50:47;18.40;49.50
44863;DHT22;30597;49.628;10.850;2023-01-13T15:53:13;18.40;49.10
44863;DHT22;30597;49.628;10.850;2023-01-13T15:55:41;18.40;49.20
44863;DHT22;30597;49.628;10.850;2023-01-13T15:58:13;18.40;49.30
44863;DHT22;30597;49.628;10.850;2023-01-13T16:00:40;18.40;49.90
44863;DHT22;30597;49.628;10.850;2023-01-13T16:03:07;18.40;49.30
44863;DHT22;30597;49.628;10.850;2023-01-13T16:05:37;18.40;49.30
44863;DHT22;30597;49.628;10.850;2023-01-13T16:08:03;18.50;49.30
44863;DHT22;30597;49.628;10.850;2023-01-13T16:10:28;18.40;49.30
44863;DHT22;30597;49.628;10.850;2023-01-13T16:12:54;18.40;49.40
44863;DHT22;30597;49.628;10.850;2023-01-13T16:15:23;18.50;49.90
44863;DHT22;30597;49.628;10.850;2023-01-13T16:17:58;18.60;50.00
44863;DHT22;30597;49.628;10.850;2023-01-13T16:20:25;18.60;50.10
44863;DHT22;30597;49.628;10.850;2023-01-13T16:22:50;18.70;50.30
44863;DHT22;30597;49.628;10.850;2023-01-13T16:25:17;18.70;50.20
44863;DHT22;30597;49.628;10.850;2023-01-13T16:27:43;18.70;50.30
44863;DHT22;30597;49.628;10.850;2023-01-13T16:30:26;18.80;50.30
44863;DHT22;30597;49.628;10.850;2023-01-13T16:32:51;18.80;50.40
44863;DHT22;30597;49.628;10.850;2023-01-13T16:35:18;18.80;50.30
44863;DHT22;30597;49.628;10.850;2023-01-13T16:37:44;18.70;50.00
44863;DHT22;30597;49.628;10.850;2023-01-13T16:40:23;18.80;50.10
44863;DHT22;30597;49.628;10.850;2023-01-13T16:42:49;18.70;50.40
44863;DHT22;30597;49.628;10.850;2023-01-13T16:45:17;18.70;50.60
44863;DHT22;30597;49.628;10.850;2023-01-13T16:47:43;18.80;51.00
44863;DHT22;30597;49.628;10.850;2023-01-13T16:50:38;18.80;50.70
44863;DHT22;30597;49.628;10.850;2023-01-13T16:53:06;18.80;50.90
44863;DHT22;30597;49.628;10.850;2023-01-13T16:55:37;18.90;51.00
44863;DHT22;30597;49.628;10.850;2023-01-13T16:58:04;18.80;51.00
44863;DHT22;30597;49.628;10.850;2023-01-13T17:00:32;18.90;51.00
44863;DHT22;30597;49.628;10.850;2023-01-13T17:02:58;19.00;50.80
44863;DHT22;30597;49.628;10.850;2023-01-13T17:05:26;18.90;50.70
44863;DHT22;30597;49.628;10.850;2023-01-13T17:07:52;19.00;50.80
44863;DHT22;30597;49.628;10.850;2023-01-13T17:10:20;19.00;50.90
44863;DHT22;30597;49.628;10.850;2023-01-13T17:12:48;19.10;51.20
44863;DHT22;30597;49.628;10.850;2023-01-13T17:15:15;19.00;50.40
44863;DHT22;30597;49.628;10.850;2023-01-13T17:17:42;18.90;50.30
44863;DHT22;30597;49.628;10.850;2023-01-13T17:20:11;18.90;50.40
44863;DHT22;30597;49.628;10.850;2023-01-13T17:22:37;18.90;50.70
44863;DHT22;30597;49.628;10.850;2023-01-13T17:25:03;19.00;50.70